Time;durP1;ratioP1;P1;durP2;ratioP2;P2;SDS_P1;SDS_P2;PMS_P1;PMS_P2;Temp;Humidity;BMP_temperature;BMP_pressure;BME280_temperature;BME280_humidity;BME280_pressure;Samples;Min_cycle;Max_cycle;Signal;HPM_P1;HPM_P2
2022/08/10 00:01:05;;;;;;;4.73;3.27;;;;;;;13.23;100.00;102446.63;5015500;28;20112;-76
2022/08/10 00:03:31;;;;;;;6.53;3.80;;;;;;;13.18;100.00;102438.13;5001320;28;20107;-76
2022/08/10 00:05:56;;;;;;;7.47;3.23;;;;;;;13.16;100.00;102440.97;5000304;28;20145;-75
2022/08/10 00:08:25;;;;;;;3.87;2.93;;;;;;;13.10;100.00;102428.94;5005128;28;20159;-73
2022/08/10 00:10:55;;;;;;;3.95;2.83;;;;;;;13.13;100.00;102432.34;4989344;28;20061;-76
2022/08/10 00:13:23;;;;;;;5.57;3.22;;;;;;;13.09;100.00;102435.31;4990619;28;20033;-75
2022/08/10 00:15:49;;;;;;;4.80;2.70;;;;;;;13.08;100.00;102433.59;5003262;28;20018;-75
2022/08/10 00:18:14;;;;;;;;;;;;;;;13.07;100.00;102436.44;5006941;28;20075;-76
2022/08/10 00:20:40;;;;;;;;;;;;;;;13.03;100.00;102425.13;4989556;28;19909;-76
2022/08/10 00:23:05;;;;;;;5.57;3.03;;;;;;;13.04;100.00;102434.88;4989796;28;19966;-76
2022/08/10 00:25:31;;;;;;;6.03;3.87;;;;;;;13.10;100.00;102449.56;4999949;28;20037;-75
2022/08/10 00:27:56;;;;;;;6.93;3.43;;;;;;;13.08;100.00;102456.88;4991525;28;20033;-74
2022/08/10 00:30:22;;;;;;;3.57;3.20;;;;;;;13.00;100.00;102446.84;5008099;28;20297;-73
2022/08/10 00:32:47;;;;;;;4.47;3.30;;;;;;;13.00;100.00;102451.38;4989377;28;20038;-75
2022/08/10 00:35:12;;;;;;;4.83;3.47;;;;;;;12.94;100.00;102438.50;5007718;28;20068;-75
2022/08/10 00:37:38;;;;;;;7.15;3.88;;;;;;;12.92;100.00;102430.59;5007252;28;20029;-74
2022/08/10 00:40:04;;;;;;;4.13;3.07;;;;;;;12.93;100.00;102420.75;5007100;28;20022;-76
2022/08/10 00:42:30;;;;;;;;;;;;;;;12.89;100.00;102414.78;5007188;28;20395;-76
2022/08/10 00:44:55;;;;;;;;;;;;;;;12.87;100.00;102412.25;5006109;28;19919;-75
2022/08/10 00:47:20;;;;;;;8.87;3.30;;;;;;;12.84;100.00;102411.69;5007453;28;20447;-75
2022/08/10 00:49:46;;;;;;;4.57;3.47;;;;;;;12.78;100.00;102404.19;4988625;28;20037;-76
2022/08/10 00:52:13;;;;;;;6.70;3.38;;;;;;;12.82;100.00;102413.66;5003026;28;20112;-74
2022/08/10 00:54:41;;;;;;;5.22;3.92;;;;;;;12.73;100.00;102398.38;4988654;28;20036;-76
2022/08/10 00:57:07;;;;;;;4.25;3.47;;;;;;;12.76;100.00;102403.47;5007147;28;20033;-73
2022/08/10 00:59:33;;;;;;;7.05;3.67;;;;;;;12.76;100.00;102400.78;5005115;28;20097;-75
2022/08/10 01:01:59;;;;;;;4.13;3.67;;;;;;;12.74;100.00;102397.41;4989253;28;20069;-76
2022/08/10 01:04:25;;;;;;;6.30;3.47;;;;;;;12.75;100.00;102401.78;5006920;28;20018;-76
2022/08/10 01:07:15;;;;;;;4.53;3.35;;;;;;;12.67;100.00;102397.09;4991084;28;20040;-75
2022/08/10 01:10:08;;;;;;;4.47;3.70;;;;;;;12.71;100.00;102403.03;5012199;28;20026;-75
2022/08/10 01:12:43;;;;;;;5.78;4.22;;;;;;;12.73;100.00;102409.09;5006660;28;20028;-75
2022/08/10 01:15:25;;;;;;;4.90;3.87;;;;;;;12.67;100.00;102419.38;4989469;28;20069;-75
2022/08/10 01:18:01;;;;;;;5.35;3.75;;;;;;;12.64;100.00;102417.00;4989266;28;20386;-74
2022/08/10 01:20:36;;;;;;;6.15;4.13;;;;;;;12.58;100.00;102417.50;5013815;28;20041;-74
2022/08/10 01:23:16;;;;;;;5.22;3.72;;;;;;;12.61;100.00;102427.13;5006433;28;20575;-75
2022/08/10 01:26:04;;;;;;;6.38;3.92;;;;;;;12.56;100.00;102416.81;5002320;28;20033;-74
2022/08/10 01:28:58;;;;;;;5.35;3.80;;;;;;;12.58;100.00;102427.38;5007277;28;20034;-76
2022/08/10 01:31:29;;;;;;;7.68;4.30;;;;;;;12.56;100.00;102408.75;5009491;28;20402;-74
2022/08/10 01:34:01;;;;;;;6.05;3.47;;;;;;;12.53;100.00;102417.06;5017716;28;20018;-74
2022/08/10 01:36:48;;;;;;;5.22;3.85;;;;;;;12.47;100.00;102417.59;5006872;28;20065;-73
2022/08/10 01:39:29;;;;;;;4.13;3.63;;;;;;;12.48;100.00;102413.09;4978067;28;20161;-75
2022/08/10 01:41:57;;;;;;;6.18;4.10;;;;;;;12.45;100.00;102411.53;5009769;28;20030;-73
2022/08/10 01:44:29;;;;;;;6.97;4.00;;;;;;;12.45;100.00;102416.88;5010229;28;20109;-75
2022/08/10 01:49:58;;;;;;;6.13;4.00;;;;;;;12.43;100.00;102419.72;5016946;28;20085;-75
2022/08/10 01:52:26;;;;;;;5.13;4.35;;;;;;;12.41;100.00;102410.13;4992852;28;20037;-75
2022/08/10 01:54:55;;;;;;;5.93;3.35;;;;;;;12.33;100.00;102415.28;4992287;28;20041;-74
2022/08/10 01:57:23;;;;;;;6.53;4.65;;;;;;;12.41;100.00;102420.84;5010439;28;20029;-76
2022/08/10 01:59:55;;;;;;;5.57;4.13;;;;;;;12.41;100.00;102415.47;5009519;28;20091;-75
2022/08/10 02:02:22;;;;;;;5.85;3.90;;;;;;;12.35;100.00;102411.50;5010261;28;20049;-76
2022/08/10 02:04:50;;;;;;;5.05;3.80;;;;;;;12.28;100.00;102402.28;4991965;28;20021;-75
2022/08/10 02:07:19;;;;;;;5.25;3.55;;;;;;;12.34;100.00;102408.94;5009782;28;20057;-76
2022/08/10 02:09:50;;;;;;;5.18;3.50;;;;;;;12.38;100.00;102424.59;4991667;28;20498;-74
2022/08/10 02:12:20;;;;;;;6.03;4.45;;;;;;;12.41;100.00;102415.47;4992435;28;20038;-75
2022/08/10 02:14:51;;;;;;;6.18;4.57;;;;;;;12.34;100.00;102420.53;4991899;28;20124;-75
2022/08/10 02:17:19;;;;;;;6.45;3.78;;;;;;;12.24;100.00;102417.78;4992478;28;20830;-76
2022/08/10 02:19:46;;;;;;;5.00;4.32;;;;;;;12.28;100.00;102414.84;4991280;28;20061;-76
2022/08/10 02:22:13;;;;;;;6.30;3.92;;;;;;;12.25;100.00;102427.50;4992105;28;20049;-74
2022/08/10 02:24:42;;;;;;;6.97;4.25;;;;;;;12.21;100.00;102418.03;5009134;28;20319;-76
2022/08/10 02:27:09;;;;;;;4.75;3.63;;;;;;;12.18;100.00;102418.31;4992285;28;20026;-76
2022/08/10 02:29:35;;;;;;;7.28;5.05;;;;;;;12.17;100.00;102411.25;4991298;28;20017;-76
2022/08/10 02:32:02;;;;;;;5.32;3.95;;;;;;;12.19;100.00;102422.66;4991566;28;20072;-74
2022/08/10 02:34:28;;;;;;;8.52;4.38;;;;;;;12.13;100.00;102423.22;4990408;28;20026;-76
2022/08/10 02:36:55;;;;;;;;;;;;;;;12.17;100.00;102429.16;5009547;28;20025;-75
2022/08/10 02:39:23;;;;;;;11.02;4.75;;;;;;;12.19;100.00;102428.03;4991904;28;19913;-74
2022/08/10 02:42:01;;;;;;;8.13;4.78;;;;;;;12.19;100.00;102425.34;5008978;28;20029;-75
2022/08/10 02:44:55;;;;;;;6.35;4.60;;;;;;;12.13;100.00;102428.56;5016132;28;20546;-73
2022/08/10 02:47:41;;;;;;;6.03;4.32;;;;;;;12.12;100.00;102434.06;5008697;28;20037;-75
2022/08/10 02:50:07;;;;;;;6.13;4.65;;;;;;;12.10;100.00;102434.16;5009882;28;20041;-74
2022/08/10 02:53:07;;;;;;;6.07;4.70;;;;;;;12.14;100.00;102443.66;4999317;28;20021;-75
2022/08/10 02:55:47;;;;;;;7.72;4.22;;;;;;;12.15;100.00;102449.84;5006110;28;20392;-75
2022/08/10 02:58:24;;;;;;;7.00;5.18;;;;;;;12.10;100.00;102447.56;4991513;28;20042;-74
2022/08/10 03:00:54;;;;;;;5.53;4.00;;;;;;;12.03;100.00;102449.94;4990831;28;20056;-76
2022/08/10 03:03:28;;;;;;;5.63;3.85;;;;;;;11.96;100.00;102447.88;5006002;28;20037;-76
2022/08/10 03:05:59;;;;;;;7.68;4.35;;;;;;;11.94;100.00;102445.38;4990847;28;20048;-76
2022/08/10 03:08:32;;;;;;;7.55;4.00;;;;;;;11.94;100.00;102447.16;4991683;28;20049;-74
2022/08/10 03:11:01;;;;;;;5.97;3.85;;;;;;;11.89;100.00;102446.72;4990443;28;20075;-76
2022/08/10 03:13:29;;;;;;;10.45;4.32;;;;;;;11.84;100.00;102439.03;5008596;28;20132;-76
2022/08/10 03:15:56;;;;;;;7.95;4.15;;;;;;;11.91;100.00;102447.44;4989991;28;20079;-76
2022/08/10 03:18:23;;;;;;;6.30;4.63;;;;;;;11.92;100.00;102446.47;4991229;28;20030;-75
2022/08/10 03:20:51;;;;;;;5.63;4.18;;;;;;;12.00;100.00;102452.00;4990280;28;20041;-74
2022/08/10 03:23:20;;;;;;;4.80;3.53;;;;;;;11.96;100.00;102450.56;4991094;28;20621;-75
2022/08/10 03:25:48;;;;;;;6.35;3.45;;;;;;;11.94;100.00;102445.38;4990525;28;20088;-76
2022/08/10 03:28:15;;;;;;;6.30;4.50;;;;;;;11.97;100.00;102433.53;4990832;28;20018;-75
2022/08/10 03:30:42;;;;;;;7.70;5.00;;;;;;;11.98;100.00;102440.56;4990064;28;20621;-74
2022/08/10 03:33:09;;;;;;;6.93;4.43;;;;;;;12.05;100.00;102447.09;4990149;28;20017;-76
2022/08/10 03:35:34;;;;;;;9.55;5.47;;;;;;;12.01;100.00;102451.88;5007795;28;20030;-76
2022/08/10 03:38:00;;;;;;;5.50;4.90;;;;;;;11.97;100.00;102446.94;5008045;28;20079;-76
2022/08/10 03:40:29;;;;;;;13.23;4.53;;;;;;;11.91;100.00;102444.75;4990056;28;20785;-75
2022/08/10 03:42:57;;;;;;;6.93;4.03;;;;;;;11.91;100.00;102437.56;4989951;28;20026;-75
2022/08/10 03:45:24;;;;;;;7.25;4.70;;;;;;;11.89;100.00;102442.19;4990644;28;20056;-76
2022/08/10 03:47:50;;;;;;;7.38;4.75;;;;;;;11.91;100.00;102442.09;4989992;28;20022;-76
2022/08/10 03:50:16;;;;;;;6.50;4.93;;;;;;;11.91;100.00;102429.53;4990056;28;20038;-76
2022/08/10 03:52:43;;;;;;;6.93;4.80;;;;;;;11.93;100.00;102432.09;4990110;28;20037;-74
2022/08/10 03:55:10;;;;;;;5.68;4.43;;;;;;;11.90;100.00;102421.66;4990348;28;20120;-75
2022/08/10 03:57:35;;;;;;;5.68;4.15;;;;;;;11.92;100.00;102439.28;4989913;28;20017;-76
2022/08/10 04:00:01;;;;;;;7.57;4.65;;;;;;;11.93;100.00;102427.59;5001882;28;20429;-76
2022/08/10 04:02:31;;;;;;;5.95;4.47;;;;;;;11.95;100.00;102436.34;4997606;28;20049;-75
2022/08/10 04:04:57;;;;;;;8.80;5.00;;;;;;;11.95;100.00;102435.50;4989840;28;20108;-74
2022/08/10 04:07:22;;;;;;;6.70;4.20;;;;;;;11.98;100.00;102441.41;5007729;28;20474;-75
2022/08/10 04:09:48;;;;;;;9.32;4.88;;;;;;;12.08;100.00;102440.63;5011902;28;20025;-75
2022/08/10 04:12:14;;;;;;;7.18;4.65;;;;;;;12.04;100.00;102451.63;4989851;28;20076;-75
2022/08/10 04:14:39;;;;;;;5.95;4.35;;;;;;;11.92;100.00;102441.13;5007288;28;20040;-76
2022/08/10 04:17:05;;;;;;;5.70;4.43;;;;;;;11.98;100.00;102451.28;4990125;28;20033;-76
2022/08/10 04:19:41;;;;;;;4.77;3.53;;;;;;;11.99;100.00;102434.25;4997086;28;20180;-75
2022/08/10 04:22:19;;;;;;;6.88;4.60;;;;;;;12.05;100.00;102436.41;5007591;28;20041;-75
2022/08/10 04:24:47;;;;;;;7.32;4.78;;;;;;;12.12;100.00;102448.28;4992195;28;20108;-76
2022/08/10 04:27:13;;;;;;;6.03;4.32;;;;;;;12.16;100.00;102446.19;5010214;28;20037;-74
2022/08/10 04:29:39;;;;;;;7.57;4.97;;;;;;;12.18;100.00;102442.41;5002108;28;20033;-75
2022/08/10 04:32:06;;;;;;;6.13;4.00;;;;;;;12.22;100.00;102445.66;4991951;28;20028;-74
2022/08/10 04:34:34;;;;;;;5.90;3.90;;;;;;;12.33;100.00;102450.09;4973275;28;20140;-75
2022/08/10 04:37:03;;;;;;;8.68;6.03;;;;;;;12.40;100.00;102445.91;5004780;28;20463;-75
2022/08/10 04:39:29;;;;;;;8.00;4.93;;;;;;;12.54;100.00;102455.44;4972617;28;20033;-75
2022/08/10 04:41:55;;;;;;;6.55;5.05;;;;;;;12.60;100.00;102453.06;5000376;28;20380;-74
2022/08/10 04:44:21;;;;;;;6.63;4.15;;;;;;;12.64;100.00;102464.34;4991811;28;20517;-75
2022/08/10 04:46:47;;;;;;;6.90;4.00;;;;;;;12.70;100.00;102460.31;5007830;28;20048;-74
2022/08/10 04:49:12;;;;;;;5.60;3.43;;;;;;;12.85;100.00;102464.28;5007763;28;20034;-76
2022/08/10 04:51:37;;;;;;;5.73;4.70;;;;;;;12.99;100.00;102460.38;4987849;28;20125;-75
2022/08/10 04:54:03;;;;;;;9.57;5.83;;;;;;;13.21;100.00;102467.38;5004432;28;20405;-75
2022/08/10 04:56:29;;;;;;;5.90;4.63;;;;;;;13.44;100.00;102468.03;5003860;28;20057;-75
2022/08/10 04:58:55;;;;;;;7.38;5.20;;;;;;;13.66;100.00;102477.63;4988999;28;20037;-76
2022/08/10 05:01:20;;;;;;;8.20;6.55;;;;;;;13.83;100.00;102474.22;4988992;28;20022;-75
2022/08/10 05:03:46;;;;;;;5.13;4.37;;;;;;;14.01;100.00;102476.22;4989531;28;20091;-75
2022/08/10 05:06:11;;;;;;;6.53;5.30;;;;;;;14.14;100.00;102476.75;4989277;28;20048;-74
2022/08/10 05:08:37;;;;;;;7.33;4.50;;;;;;;14.47;100.00;102479.91;4988575;28;20438;-75
2022/08/10 05:11:02;;;;;;;5.23;4.17;;;;;;;14.64;100.00;102481.06;5006646;28;20017;-76
2022/08/10 05:13:28;;;;;;;6.40;3.63;;;;;;;14.99;100.00;102483.03;4991496;28;20026;-75
2022/08/10 05:15:53;;;;;;;5.87;4.33;;;;;;;15.50;100.00;102486.09;5010461;28;20547;-77
2022/08/10 05:18:19;;;;;;;4.63;4.00;;;;;;;16.32;100.00;102490.38;5010952;28;20037;-77
2022/08/10 05:20:44;;;;;;;3.95;2.53;;;;;;;17.48;100.00;102469.13;4992281;28;20080;-76
2022/08/10 05:23:10;;;;;;;4.03;3.10;;;;;;;18.51;100.00;102444.25;4992778;28;20152;-76
2022/08/10 05:25:35;;;;;;;5.10;3.57;;;;;;;19.51;100.00;102408.41;4992972;28;20037;-76
2022/08/10 05:28:01;;;;;;;2.50;2.30;;;;;;;20.38;100.00;102344.69;5008202;28;20115;-76
2022/08/10 05:30:27;;;;;;;3.17;2.70;;;;;;;21.10;100.00;102248.84;4992132;28;20478;-75
2022/08/10 05:32:52;;;;;;;3.97;3.58;;;;;;;22.09;100.00;102145.31;5006818;28;20488;-75
2022/08/10 05:35:18;;;;;;;6.33;3.10;;;;;;;22.59;100.00;102029.88;4994007;28;20028;-76
2022/08/10 05:37:44;;;;;;;6.85;3.50;;;;;;;22.80;100.00;102001.56;5009867;28;20430;-76
2022/08/10 05:40:10;;;;;;;3.03;2.80;;;;;;;23.26;100.00;101990.53;4992515;28;20038;-75
2022/08/10 05:42:36;;;;;;;4.35;3.50;;;;;;;22.81;100.00;102035.91;5008344;28;20042;-76
2022/08/10 05:45:03;;;;;;;6.55;3.53;;;;;;;22.80;100.00;102012.44;4992670;28;20029;-76
2022/08/10 05:47:28;;;;;;;4.47;3.55;;;;;;;23.40;100.00;102018.56;4992201;28;20026;-76
2022/08/10 05:49:54;;;;;;;5.03;3.70;;;;;;;24.12;100.00;101963.78;5002690;28;20026;-76
2022/08/10 05:52:21;;;;;;;3.03;2.72;;;;;;;24.59;100.00;101945.91;4999590;28;20029;-76
2022/08/10 05:54:47;;;;;;;4.68;3.33;;;;;;;24.99;94.02;101857.19;5015654;28;20118;-77
2022/08/10 05:57:15;;;;;;;4.70;2.80;;;;;;;25.00;91.14;101853.38;5012033;28;20025;-76
2022/08/10 05:59:46;;;;;;;5.03;3.05;;;;;;;25.18;88.57;101839.69;4999497;28;20038;-75
2022/08/10 06:02:19;;;;;;;6.00;3.60;;;;;;;24.70;95.98;101968.91;5002144;28;20096;-76
2022/08/10 06:04:46;;;;;;;4.95;3.35;;;;;;;24.68;95.56;101981.09;4986970;28;20021;-75
2022/08/10 06:07:15;;;;;;;3.95;3.55;;;;;;;25.31;89.81;101974.47;4995210;28;20034;-76
2022/08/10 06:09:42;;;;;;;3.20;2.90;;;;;;;25.80;83.33;101918.63;4991707;28;20030;-75
2022/08/10 06:12:09;;;;;;;4.68;2.55;;;;;;;25.18;84.96;101897.06;5010123;28;20057;-76
2022/08/10 06:17:23;;;;;;;3.50;3.20;;;;;;;25.64;83.30;101957.59;5002334;28;20383;-76
2022/08/10 06:19:49;;;;;;;3.50;2.75;;;;;;;25.26;86.58;102013.41;4994540;28;20526;-78
2022/08/10 06:22:15;;;;;;;2.97;2.67;;;;;;;25.33;87.42;102043.41;4985495;28;20060;-76
2022/08/10 06:24:42;;;;;;;4.03;2.97;;;;;;;25.88;83.42;102027.72;5014017;28;20020;-76
2022/08/10 06:27:08;;;;;;;3.60;2.65;;;;;;;25.77;81.48;101972.94;5002891;28;20047;-74
2022/08/10 06:29:35;;;;;;;2.83;2.58;;;;;;;25.88;78.88;101942.09;4983376;28;20022;-76
2022/08/10 06:32:03;;;;;;;4.97;3.10;;;;;;;25.44;79.69;101931.38;5003021;28;20041;-75
2022/08/10 06:34:37;;;;;;;2.10;1.90;;;;;;;25.34;87.40;102132.56;5002626;28;20017;-76
2022/08/10 06:37:05;;;;;;;3.13;2.38;;;;;;;25.87;79.92;102019.75;5013207;28;20029;-75
2022/08/10 06:39:31;;;;;;;4.28;2.40;;;;;;;26.58;76.91;102060.94;5002553;28;20052;-76
2022/08/10 06:42:27;;;;;;;4.38;2.38;;;;;;;26.00;79.36;102059.75;5011092;28;20124;-75
2022/08/10 06:44:59;;;;;;;3.58;2.63;;;;;;;26.62;73.91;101986.28;5020075;28;20485;-75
2022/08/10 06:47:31;;;;;;;3.83;2.40;;;;;;;26.15;73.44;101925.19;5017197;28;20046;-76
2022/08/10 06:50:00;;;;;;;1.95;1.40;;;;;;;25.99;75.36;102004.22;4994511;28;20034;-75
2022/08/10 06:52:29;;;;;;;4.38;2.47;;;;;;;25.17;81.45;102051.13;5002175;28;20109;-74
2022/08/10 06:54:59;;;;;;;5.57;2.42;;;;;;;25.10;79.89;101987.53;5003737;28;20030;-76
2022/08/10 06:57:29;;;;;;;2.33;2.10;;;;;;;25.17;82.51;102080.34;5002105;28;20487;-76
2022/08/10 06:59:57;;;;;;;2.40;2.20;;;;;;;25.03;85.09;102123.41;4993730;28;20533;-76
2022/08/10 07:02:32;;;;;;;4.00;2.10;;;;;;;24.77;86.46;102121.72;4999967;28;20838;-75
2022/08/10 07:05:03;;;;;;;3.37;1.77;;;;;;;24.90;82.93;102060.69;5008893;28;20026;-75
2022/08/10 07:07:39;;;;;;;2.30;1.60;;;;;;;24.56;84.80;102077.41;4990903;28;20030;-75
2022/08/10 07:10:08;;;;;;;3.92;1.80;;;;;;;25.06;84.55;102148.34;5006716;28;20082;-75
2022/08/10 07:12:34;;;;;;;2.35;1.70;;;;;;;24.49;89.59;102157.66;4983276;28;20060;-76
2022/08/10 07:15:01;;;;;;;2.47;1.80;;;;;;;24.84;81.44;102038.69;4985305;28;20164;-74
2022/08/10 07:17:29;;;;;;;3.13;1.73;;;;;;;24.38;88.80;102143.66;5001508;28;20018;-76
2022/08/10 07:19:57;;;;;;;2.65;1.58;;;;;;;23.53;85.63;101963.97;5013052;28;20123;-75
2022/08/10 07:22:29;;;;;;;1.80;1.58;;;;;;;23.83;97.44;102257.88;5008597;28;20025;-75
2022/08/10 07:24:58;;;;;;;1.58;1.48;;;;;;;24.32;96.99;102297.34;4998881;28;20030;-75
2022/08/10 07:27:24;;;;;;;;;;;;;;;24.62;93.40;102278.53;5001818;28;20286;-76
2022/08/10 07:29:52;;;;;;;2.70;1.38;;;;;;;24.94;85.82;102149.34;5001500;28;19913;-75
2022/08/10 07:32:19;;;;;;;1.70;0.95;;;;;;;23.97;78.21;101866.75;5000395;28;20025;-76
2022/08/10 07:34:47;;;;;;;2.47;0.88;;;;;;;24.26;75.21;101867.09;4990444;28;20112;-76
2022/08/10 07:37:13;;;;;;;0.82;0.77;;;;;;;24.85;73.94;101960.31;4998827;28;20104;-76
2022/08/10 07:39:44;;;;;;;2.08;0.85;;;;;;;24.80;69.58;101821.72;5015259;28;20029;-77
2022/08/10 07:42:12;;;;;;;6.88;1.10;;;;;;;24.83;67.01;101742.06;5016620;28;20044;-76
2022/08/10 07:44:41;;;;;;;1.20;0.70;;;;;;;25.03;66.59;101795.56;4993462;28;20037;-76
2022/08/10 07:47:12;;;;;;;1.08;0.50;;;;;;;25.27;66.62;101843.75;4985766;28;20064;-76
2022/08/10 07:49:40;;;;;;;1.40;0.60;;;;;;;25.40;61.15;101625.94;4990769;28;20026;-76
2022/08/10 07:52:09;;;;;;;0.57;0.57;;;;;;;25.56;60.00;101641.59;4999401;28;20022;-76
2022/08/10 07:54:44;;;;;;;3.38;0.80;;;;;;;25.61;56.83;101466.72;4999605;28;20026;-76
2022/08/10 07:57:16;;;;;;;2.95;0.82;;;;;;;25.79;57.90;101615.25;5017659;28;20570;-76
2022/08/10 07:59:45;;;;;;;1.85;1.10;;;;;;;25.17;59.06;101608.47;5002022;28;20507;-76
2022/08/10 08:02:19;;;;;;;2.22;0.98;;;;;;;25.27;60.42;101733.63;5006837;28;20018;-76
2022/08/10 08:04:46;;;;;;;4.38;1.27;;;;;;;25.45;60.19;101746.31;5001731;28;20033;-76
2022/08/10 08:07:13;;;;;;;2.88;0.88;;;;;;;25.46;58.52;101661.34;4992951;28;20034;-76
2022/08/10 08:09:39;;;;;;;1.13;1.05;;;;;;;24.96;62.71;101795.66;5018424;28;20033;-77
2022/08/10 08:12:07;;;;;;;4.82;1.10;;;;;;;24.42;64.04;101742.84;5001229;28;20643;-76
2022/08/10 08:14:34;;;;;;;1.00;0.70;;;;;;;24.38;63.20;101769.75;4997905;28;20033;-76
2022/08/10 08:16:59;;;;;;;2.00;1.20;;;;;;;24.39;63.82;101765.13;5015578;28;20026;-75
2022/08/10 08:19:27;;;;;;;1.65;1.00;;;;;;;24.21;64.94;101785.09;4992011;28;20035;-75
2022/08/10 08:21:54;;;;;;;4.90;0.80;;;;;;;24.61;68.15;102008.47;5001203;28;20052;-76
2022/08/10 08:24:22;;;;;;;2.35;1.30;;;;;;;25.03;65.93;101945.81;4982094;28;20052;-75
2022/08/10 08:26:48;;;;;;;1.48;1.00;;;;;;;24.69;63.51;101770.63;4986810;28;20022;-76
2022/08/10 08:29:15;;;;;;;2.20;1.42;;;;;;;24.67;65.63;101894.78;4991258;28;20037;-77
2022/08/10 08:31:42;;;;;;;3.58;1.23;;;;;;;25.09;66.38;101976.84;4984886;28;20045;-75
2022/08/10 08:34:08;;;;;;;1.27;1.10;;;;;;;23.91;65.67;101714.13;4998518;28;20033;-77
2022/08/10 08:36:37;;;;;;;2.33;1.20;;;;;;;23.55;73.14;101970.06;4989616;28;20383;-76
2022/08/10 08:39:03;;;;;;;1.92;0.80;;;;;;;24.65;69.43;102023.34;4992083;28;20104;-77
2022/08/10 08:41:28;;;;;;;1.10;1.00;;;;;;;25.00;65.42;101933.41;5010202;28;20033;-76
2022/08/10 08:44:25;;;;;;;6.90;1.70;;;;;;;25.69;62.40;101912.06;4986105;28;20040;-76
2022/08/10 08:47:11;;;;;;;1.40;1.00;;;;;;;25.27;65.26;101974.09;4997633;28;20109;-76
2022/08/10 08:50:13;;;;;;;3.65;1.08;;;;;;;25.99;61.24;101893.91;4989319;28;20128;-76
2022/08/10 08:52:48;;;;;;;0.88;0.88;;;;;;;25.16;64.88;101909.28;5004886;28;20474;-76
2022/08/10 08:55:32;;;;;;;1.63;0.93;;;;;;;24.00;66.75;101779.03;5005820;28;20655;-78
2022/08/10 08:58:22;;;;;;;2.63;1.20;;;;;;;24.81;66.75;101940.81;4991332;28;20620;-76
2022/08/10 09:01:02;;;;;;;3.42;1.13;;;;;;;25.49;64.79;101977.97;5006640;28;20066;-77
2022/08/10 09:03:53;;;;;;;2.35;1.40;;;;;;;26.36;60.46;101934.72;4987479;28;20028;-76
2022/08/10 09:06:40;;;;;;;2.40;1.05;;;;;;;25.01;62.44;101751.25;5008026;28;20843;-78
2022/08/10 09:09:15;;;;;;;3.85;1.10;;;;;;;24.52;64.75;101796.91;4986734;28;20056;-76
2022/08/10 09:12:03;;;;;;;1.30;1.10;;;;;;;25.55;65.30;102030.91;4991776;28;20033;-76
2022/08/10 09:15:02;;;;;;;2.45;1.08;;;;;;;26.02;60.35;101864.19;4997554;28;20049;-77
2022/08/10 09:18:05;;;;;;;0.77;0.77;;;;;;;26.70;56.75;101791.44;5000597;28;20033;-76
2022/08/10 09:20:57;;;;;;;2.00;0.80;;;;;;;25.40;58.56;101635.00;5008408;28;20026;-77
2022/08/10 09:23:41;;;;;;;4.38;1.00;;;;;;;25.84;58.75;101787.69;5006055;28;20045;-76
2022/08/10 09:26:13;;;;;;;5.43;1.30;;;;;;;26.62;56.63;101802.78;5004348;28;20136;-77
2022/08/10 09:28:41;;;;;;;0.80;0.70;;;;;;;26.48;54.98;101637.09;5009257;28;20033;-77
2022/08/10 09:31:12;;;;;;;2.58;0.95;;;;;;;25.51;56.84;101597.75;5008425;28;20107;-77
2022/08/10 09:33:48;;;;;;;3.50;0.80;;;;;;;25.60;57.66;101675.59;4999286;28;20033;-77
2022/08/10 09:36:29;;;;;;;0.90;0.90;;;;;;;24.93;57.56;101530.34;5006187;28;20094;-77
2022/08/10 09:39:13;;;;;;;3.08;1.17;;;;;;;24.27;60.79;101606.81;4990190;28;20468;-77
2022/08/10 09:42:04;;;;;;;1.40;0.95;;;;;;;26.10;59.77;101928.66;4987888;28;20038;-78
2022/08/10 09:44:44;;;;;;;2.28;1.17;;;;;;;26.05;57.04;101707.72;4985947;28;20030;-76
2022/08/10 09:47:41;;;;;;;1.95;1.20;;;;;;;27.29;54.94;101843.19;4992519;28;20092;-77
2022/08/10 09:50:29;;;;;;;2.13;1.00;;;;;;;28.22;51.15;101708.19;5003492;28;20044;-77
2022/08/10 09:53:34;;;;;;;1.30;0.70;;;;;;;28.12;50.45;101637.53;5008502;28;20241;-78
2022/08/10 09:56:06;;;;;;;0.80;0.70;;;;;;;28.66;50.02;101646.84;4947013;28;20597;-77
2022/08/10 09:58:59;;;;;;;2.05;0.98;;;;;;;27.83;48.85;101358.97;5007101;28;20044;-76
2022/08/10 10:01:31;;;;;;;1.05;0.80;;;;;;;26.19;54.09;101515.88;5013001;28;20399;-77
2022/08/10 10:04:44;;;;;;;1.50;0.95;;;;;;;26.20;54.05;101532.06;5015196;28;20022;-77
2022/08/10 10:07:18;;;;;;;1.77;0.80;;;;;;;26.02;54.77;101545.97;4989645;28;20144;-78
2022/08/10 10:09:56;;;;;;;3.20;1.00;;;;;;;25.44;57.06;101581.47;4993782;28;20083;-77
2022/08/10 10:12:53;;;;;;;2.88;0.90;;;;;;;24.72;56.53;101404.28;4994998;28;20048;-76
2022/08/10 10:15:44;;;;;;;1.02;0.70;;;;;;;24.38;55.61;101258.63;4994945;28;20070;-78
2022/08/10 10:18:22;;;;;;;3.05;0.95;;;;;;;24.78;55.53;101392.41;4995490;28;20034;-77
2022/08/10 10:21:02;;;;;;;0.90;0.73;;;;;;;24.65;59.11;101605.59;5002706;28;20033;-77
2022/08/10 10:23:37;;;;;;;1.23;1.10;;;;;;;24.19;61.09;101623.53;5019487;28;20045;-76
2022/08/10 10:26:23;;;;;;;1.55;0.80;;;;;;;24.40;61.52;101680.31;5012034;28;20030;-78
2022/08/10 10:29:22;;;;;;;2.63;1.38;;;;;;;26.27;58.29;101869.41;5012193;28;20536;-77
2022/08/10 10:32:00;;;;;;;1.58;0.80;;;;;;;27.79;54.82;101908.22;5012798;28;20278;-76
2022/08/10 10:34:44;;;;;;;1.08;1.00;;;;;;;27.94;51.77;101677.13;4995782;28;20459;-77
2022/08/10 10:37:12;;;;;;;1.90;0.80;;;;;;;28.64;51.42;101811.13;4996005;28;20042;-77
2022/08/10 10:39:46;;;;;;;3.67;1.08;;;;;;;28.62;48.73;101548.47;5002206;28;20402;-77
2022/08/10 10:42:20;;;;;;;3.97;0.80;;;;;;;28.19;49.41;101533.84;4994751;28;20464;-77
2022/08/10 10:44:54;;;;;;;1.48;1.00;;;;;;;28.48;47.15;101367.94;4995391;28;20029;-76
2022/08/10 10:47:41;;;;;;;1.60;0.82;;;;;;;28.50;49.01;101589.03;5011459;28;20478;-76
2022/08/10 10:50:27;;;;;;;2.50;1.27;;;;;;;29.19;47.00;101524.91;5010043;28;20116;-77
2022/08/10 10:53:11;;;;;;;2.05;1.02;;;;;;;29.99;45.33;101554.03;4992727;28;20080;-77
2022/08/10 10:55:48;;;;;;;2.90;1.25;;;;;;;28.47;48.27;101500.84;5016613;28;20041;-78
2022/08/10 10:58:40;;;;;;;2.65;1.50;;;;;;;28.05;47.29;101284.78;4993971;28;20051;-77
2022/08/10 11:01:21;;;;;;;4.00;1.58;;;;;;;26.71;49.08;101184.25;5003590;28;20041;-77
2022/08/10 11:03:46;;;;;;;4.35;1.30;;;;;;;28.20;48.03;101466.84;5004186;28;20030;-77
2022/08/10 11:06:29;;;;;;;4.63;1.33;;;;;;;28.96;47.68;101559.13;5018756;28;20037;-77
2022/08/10 11:09:04;;;;;;;2.05;1.25;;;;;;;28.77;46.14;101366.41;5000144;28;20037;-77
2022/08/10 11:11:37;;;;;;;4.32;1.52;;;;;;;29.54;45.38;101482.09;4986288;28;20032;-77
2022/08/10 11:14:22;;;;;;;2.80;1.35;;;;;;;29.52;45.81;101466.97;4995421;28;20282;-77
2022/08/10 11:16:52;;;;;;;5.80;1.58;;;;;;;27.19;47.09;101041.88;5023432;28;20034;-76
2022/08/10 11:19:47;;;;;;;1.60;1.45;;;;;;;28.01;47.42;101305.63;4992931;28;20083;-78
2022/08/10 11:22:29;;;;;;;2.20;0.90;;;;;;;28.84;46.45;101374.38;5010152;28;20437;-77
2022/08/10 11:25:09;;;;;;;3.80;1.13;;;;;;;29.13;45.49;101350.03;4992171;28;20376;-77
2022/08/10 11:27:48;;;;;;;2.92;1.13;;;;;;;29.13;46.63;101471.00;5011354;28;20050;-77
2022/08/10 11:30:27;;;;;;;2.45;1.77;;;;;;;29.53;45.68;101479.66;4992589;28;20041;-77
2022/08/10 11:33:08;;;;;;;2.22;1.10;;;;;;;29.39;44.15;101249.13;5005636;28;20033;-77
2022/08/10 11:35:44;;;;;;;6.30;1.55;;;;;;;29.42;45.90;101424.59;4999696;28;20309;-77
2022/08/10 11:38:29;;;;;;;4.85;1.17;;;;;;;30.30;42.59;101337.34;4989268;28;20030;-77
2022/08/10 11:41:08;;;;;;;4.18;1.17;;;;;;;30.01;43.88;101337.09;5009360;28;20065;-77
2022/08/10 11:43:38;;;;;;;2.95;1.30;;;;;;;30.31;42.75;101313.38;5016900;28;20026;-77
2022/08/10 11:46:30;;;;;;;5.30;1.65;;;;;;;29.51;43.43;101173.75;4992411;28;20042;-78
2022/08/10 11:49:05;;;;;;;4.50;1.65;;;;;;;30.22;43.83;101421.31;4991581;28;20033;-77
2022/08/10 11:51:47;;;;;;;2.60;1.52;;;;;;;31.07;41.94;101394.84;4999521;28;20273;-76